createdAt,value
2023-05-13T00:02:22.132Z,101650.56
2023-05-13T00:04:51.953Z,101647.38
2023-05-13T00:07:21.817Z,101646.09
2023-05-13T00:09:54.239Z,101652.97
2023-05-13T00:12:24.059Z,101651.69
2023-05-13T00:14:53.936Z,101652.81
2023-05-13T00:17:23.815Z,101658.91
2023-05-13T00:19:55.542Z,101652.78
2023-05-13T00:22:25.366Z,101650.38
2023-05-13T00:24:57.804Z,101654.25
2023-05-13T00:27:27.734Z,101653.75
2023-05-13T00:29:59.670Z,101656.03
2023-05-13T00:32:29.931Z,101654.91
2023-05-13T00:35:00.168Z,101651.66
2023-05-13T00:37:29.986Z,101657.13
2023-05-13T00:40:03.840Z,101657.13
2023-05-13T00:42:34.062Z,101649.25
2023-05-13T00:45:03.917Z,101651.66
2023-05-13T00:47:33.914Z,101647.00
2023-05-13T00:50:03.817Z,101642.97
2023-05-13T00:52:33.701Z,101644.59
2023-05-13T00:55:06.853Z,101650.06
2023-05-13T00:57:37.896Z,101650.84
2023-05-13T01:00:10.543Z,101651.66
2023-05-13T01:02:48.751Z,101646.19
2023-05-13T01:05:29.929Z,101650.38
2023-05-13T01:08:07.028Z,101647.50
2023-05-13T01:10:47.830Z,101644.25
2023-05-13T01:13:23.390Z,101647.50
2023-05-13T01:15:58.824Z,101645.06
2023-05-13T01:18:34.744Z,101644.25
2023-05-13T01:21:06.564Z,101641.84
2023-05-13T01:23:39.066Z,101648.22
2023-05-13T01:26:08.948Z,101646.13
2023-05-13T01:28:39.306Z,101639.69
2023-05-13T01:31:11.104Z,101641.94
2023-05-13T01:33:41.513Z,101639.66
2023-05-13T01:36:12.897Z,101643.84
2023-05-13T01:38:46.683Z,101644.47
2023-05-13T01:41:16.628Z,101647.34
2023-05-13T01:43:46.556Z,101648.63
2023-05-13T01:46:16.871Z,101656.94
2023-05-13T01:48:46.773Z,101649.69
2023-05-13T01:51:16.622Z,101654.97
2023-05-13T01:53:49.064Z,101651.78
2023-05-13T01:56:19.020Z,101655.44
2023-05-13T01:58:48.843Z,101647.88
2023-05-13T02:01:19.846Z,101644.97
2023-05-13T02:03:52.557Z,101648.34
2023-05-13T02:06:22.610Z,101647.81
2023-05-13T02:08:55.045Z,101647.34
2023-05-13T02:11:25.021Z,101651.50
2023-05-13T02:13:55.052Z,101644.72
2023-05-13T02:16:25.199Z,101642.66
2023-05-13T02:18:55.109Z,101643.28
2023-05-13T02:21:24.957Z,101640.84
2023-05-13T02:23:57.868Z,101643.88
2023-05-13T02:26:27.981Z,101644.53
2023-05-13T02:28:57.978Z,101650.91
2023-05-13T02:31:27.799Z,101655.06
2023-05-13T02:33:58.018Z,101647.50
2023-05-13T02:36:27.892Z,101659.84
2023-05-13T02:39:00.716Z,101657.72
2023-05-13T02:41:30.734Z,101655.94
2023-05-13T02:44:01.026Z,101654.44
2023-05-13T02:46:30.917Z,101659.41
2023-05-13T02:49:00.908Z,101659.22
2023-05-13T02:51:30.808Z,101660.34
2023-05-13T02:54:03.281Z,101655.19
2023-05-13T02:56:33.329Z,101659.63
2023-05-13T02:59:03.248Z,101649.34
2023-05-13T03:01:33.254Z,101650.75
2023-05-13T03:04:03.121Z,101652.19
2023-05-13T03:06:32.968Z,101650.88
2023-05-13T03:09:05.374Z,101646.03
2023-05-13T03:11:35.289Z,101648.28
2023-05-13T03:14:05.161Z,101652.91
2023-05-13T03:16:35.109Z,101651.63
2023-05-13T03:19:05.025Z,101651.91
2023-05-13T03:21:35.032Z,101641.63
2023-05-13T03:24:07.935Z,101647.41
2023-05-13T03:26:38.478Z,101654.25
2023-05-13T03:29:08.276Z,101645.59
2023-05-13T03:31:38.219Z,101648.63
2023-05-13T03:34:08.306Z,101642.38
2023-05-13T03:36:38.232Z,101654.88
2023-05-13T03:39:11.427Z,101648.63
2023-05-13T03:41:41.306Z,101643.50
2023-05-13T03:44:11.159Z,101648.13
2023-05-13T03:46:41.117Z,101649.25
2023-05-13T03:49:11.038Z,101650.66
2023-05-13T03:51:41.338Z,101645.22
2023-05-13T03:54:13.922Z,101652.25
2023-05-13T03:56:43.825Z,101652.25
2023-05-13T03:59:13.639Z,101650.06
2023-05-13T04:01:43.684Z,101652.25
2023-05-13T04:04:13.561Z,101652.25
2023-05-13T04:06:43.427Z,101653.06
2023-05-13T04:09:15.881Z,101663.16
2023-05-13T04:11:46.018Z,101667.00
2023-05-13T04:14:16.260Z,101661.56
2023-05-13T04:16:46.301Z,101671.66
2023-05-13T04:19:16.161Z,101662.19
2023-05-13T04:21:46.069Z,101666.81
2023-05-13T04:24:18.597Z,101673.06
2023-05-13T04:26:48.436Z,101667.94
2023-05-13T04:29:18.807Z,101676.38
2023-05-13T04:31:48.960Z,101673.47
2023-05-13T04:34:18.951Z,101666.22
2023-05-13T04:36:49.391Z,101675.00
2023-05-13T04:39:22.008Z,101678.31
2023-05-13T04:41:51.930Z,101670.78
2023-05-13T04:44:21.895Z,101671.91
2023-05-13T04:46:51.731Z,101673.81
2023-05-13T04:49:21.546Z,101671.09
2023-05-13T04:51:51.939Z,101675.72
2023-05-13T04:54:24.890Z,101673.28
2023-05-13T04:56:54.937Z,101683.38
2023-05-13T04:59:25.457Z,101683.38
2023-05-13T05:01:55.378Z,101680.16
2023-05-13T05:04:25.267Z,101682.88
2023-05-13T05:06:55.236Z,101689.13
2023-05-13T05:09:27.656Z,101693.47
2023-05-13T05:11:57.573Z,101692.66
2023-05-13T05:14:27.452Z,101696.50
2023-05-13T05:16:57.294Z,101691.84
2023-05-13T05:19:27.305Z,101688.03
2023-05-13T05:21:57.263Z,101695.88
2023-05-13T05:24:29.792Z,101683.38
2023-05-13T05:26:59.739Z,101693.16
2023-05-13T05:29:29.600Z,101692.06
2023-05-13T05:31:59.764Z,101692.06
2023-05-13T05:34:29.800Z,101688.81
2023-05-13T05:36:59.697Z,101690.44
2023-05-13T05:39:32.234Z,101703.75
2023-05-13T05:42:02.114Z,101698.31
2023-05-13T05:44:32.024Z,101702.34
2023-05-13T05:47:01.861Z,101708.59
2023-05-13T05:49:31.820Z,101710.00
2023-05-13T05:52:01.794Z,101707.78
2023-05-13T05:54:34.448Z,101703.94
2023-05-13T05:57:04.297Z,101697.91
2023-05-13T05:59:34.219Z,101704.97
2023-05-13T06:02:04.655Z,101706.56
2023-05-13T06:04:34.613Z,101711.41
2023-05-13T06:07:04.761Z,101713.72
2023-05-13T06:09:37.378Z,101710.88
2023-05-13T06:12:08.687Z,101720.06
2023-05-13T06:14:38.679Z,101719.63
2023-05-13T06:17:08.920Z,101726.91
2023-05-13T06:19:38.894Z,101722.03
2023-05-13T06:22:08.759Z,101724.22
2023-05-13T06:24:43.233Z,101718.94
2023-05-13T06:27:13.521Z,101719.28
2023-05-13T06:29:43.429Z,101714.28
2023-05-13T06:32:13.375Z,101710.59
2023-05-13T06:34:46.169Z,101716.47
2023-05-13T06:37:16.586Z,101712.13
2023-05-13T06:39:49.212Z,101713.78
2023-05-13T06:42:19.517Z,101706.69
2023-05-13T06:44:49.386Z,101708.91
2023-05-13T06:47:20.197Z,101696.88
2023-05-13T06:49:51.060Z,101701.94
2023-05-13T06:52:20.919Z,101708.56
2023-05-13T06:54:53.484Z,101711.78
2023-05-13T06:57:29.597Z,101708.06
2023-05-13T07:00:06.066Z,101705.78
2023-05-13T07:02:36.068Z,101715.03
2023-05-13T07:05:06.355Z,101718.88
2023-05-13T07:07:36.624Z,101718.38
2023-05-13T07:10:10.104Z,101716.31
2023-05-13T07:12:40.211Z,101709.66
2023-05-13T07:15:11.616Z,101714.28
2023-05-13T07:17:43.641Z,101714.22
2023-05-13T07:20:14.314Z,101711.41
2023-05-13T07:22:44.260Z,101712.00
2023-05-13T07:25:18.039Z,101719.19
2023-05-13T07:27:48.428Z,101720.63
2023-05-13T07:30:18.928Z,101726.16
2023-05-13T07:32:49.154Z,101725.03
2023-05-13T07:35:19.879Z,101730.72
2023-05-13T07:37:49.908Z,101725.94
2023-05-13T07:40:22.903Z,101720.47
2023-05-13T07:42:53.043Z,101726.72
2023-05-13T07:45:23.460Z,101725.41
2023-05-13T07:47:53.459Z,101729.81
2023-05-13T07:50:24.054Z,101724.94
2023-05-13T07:52:54.077Z,101722.56
2023-05-13T07:55:26.880Z,101721.03
2023-05-13T07:57:56.865Z,101726.75
2023-05-13T08:00:27.122Z,101734.53
2023-05-13T08:02:58.254Z,101730.91
2023-05-13T08:05:28.223Z,101724.41
2023-05-13T08:08:02.071Z,101726.25
2023-05-13T08:10:34.641Z,101731.78
2023-05-13T08:13:04.736Z,101717.91
2023-05-13T08:15:34.722Z,101721.06
2023-05-13T08:18:04.747Z,101714.41
2023-05-13T08:20:34.847Z,101714.78
2023-05-13T08:23:06.487Z,101716.03
2023-05-13T08:25:39.465Z,101711.66
2023-05-13T08:28:09.379Z,101701.72
2023-05-13T08:30:40.924Z,101714.97
2023-05-13T08:33:11.438Z,101698.53
2023-05-13T08:35:42.971Z,101704.69
2023-05-13T08:38:14.622Z,101700.59
2023-05-13T08:40:48.594Z,101699.13
2023-05-13T08:43:19.264Z,101688.50
2023-05-13T08:45:50.936Z,101698.88
2023-05-13T08:48:22.745Z,101696.63
2023-05-13T08:50:54.290Z,101700.75
2023-05-13T08:53:25.668Z,101705.56
2023-05-13T08:55:58.666Z,101701.66
2023-05-13T08:58:28.620Z,101703.38
2023-05-13T09:00:59.260Z,101705.00
2023-05-13T09:03:30.988Z,101699.88
2023-05-13T09:06:03.813Z,101697.13
2023-05-13T09:08:33.770Z,101700.81
2023-05-13T09:11:06.397Z,101694.09
2023-05-13T09:13:36.475Z,101695.72
2023-05-13T09:16:06.703Z,101697.34
2023-05-13T09:18:36.913Z,101690.66
2023-05-13T09:21:28.044Z,101694.19
2023-05-13T09:24:21.891Z,101691.41
2023-05-13T09:26:55.117Z,101693.38
2023-05-13T09:29:26.655Z,101679.13
2023-05-13T09:31:58.593Z,101680.75
2023-05-13T09:34:30.925Z,101685.94
2023-05-13T09:37:02.438Z,101682.34
2023-05-13T09:39:34.231Z,101674.81
2023-05-13T09:42:07.695Z,101663.25
2023-05-13T09:44:37.720Z,101668.81
2023-05-13T09:47:08.249Z,101671.16
2023-05-13T09:49:38.255Z,101664.75
2023-05-13T09:52:11.569Z,101669.88
2023-05-13T09:54:41.766Z,101660.69
2023-05-13T09:57:16.554Z,101658.31
2023-05-13T09:59:46.546Z,101652.34
2023-05-13T10:02:19.959Z,101653.53
2023-05-13T10:04:49.980Z,101652.75
2023-05-13T10:07:24.689Z,101643.19
2023-05-13T10:09:59.191Z,101651.16
2023-05-13T10:12:34.379Z,101652.75
2023-05-13T10:15:05.973Z,101640.81
2023-05-13T10:17:36.259Z,101647.88
2023-05-13T10:20:08.926Z,101639.09
2023-05-13T10:22:39.921Z,101635.06
2023-05-13T10:25:10.876Z,101642.59
2023-05-13T10:27:43.737Z,101639.34
2023-05-13T10:30:15.056Z,101633.38
2023-05-13T10:32:45.108Z,101631.72
2023-05-13T10:35:17.213Z,101636.38
2023-05-13T10:37:59.482Z,101625.88
2023-05-13T10:40:56.258Z,101625.91
2023-05-13T10:43:31.567Z,101636.94
2023-05-13T10:46:03.924Z,101637.63
2023-05-13T10:48:43.649Z,101617.75
2023-05-13T10:51:18.488Z,101628.13
2023-05-13T10:53:52.076Z,101623.34
2023-05-13T10:56:24.564Z,101626.03
2023-05-13T10:59:04.449Z,101624.34
2023-05-13T11:01:39.437Z,101611.97
2023-05-13T11:04:09.524Z,101621.84
2023-05-13T11:06:41.115Z,101613.19
2023-05-13T11:09:14.658Z,101620.13
2023-05-13T11:11:45.317Z,101608.78
2023-05-13T11:14:22.366Z,101606.44
2023-05-13T11:16:56.812Z,101603.31
2023-05-13T11:19:30.126Z,101599.50
2023-05-13T11:22:07.248Z,101597.28
2023-05-13T11:24:37.594Z,101597.31
2023-05-13T11:27:17.261Z,101598.38
2023-05-13T11:29:55.839Z,101594.59
2023-05-13T11:32:56.988Z,101592.19
2023-05-13T11:35:28.440Z,101580.88
2023-05-13T11:38:00.320Z,101591.97
2023-05-13T11:40:32.838Z,101596.63
2023-05-13T11:43:05.286Z,101592.25
2023-05-13T11:45:42.686Z,101587.84
2023-05-13T11:48:23.072Z,101598.50
2023-05-13T11:50:53.513Z,101585.28
2023-05-13T11:53:24.895Z,101588.69
2023-05-13T11:55:55.788Z,101585.72
2023-05-13T11:58:25.935Z,101580.16
2023-05-13T12:00:59.394Z,101584.63
2023-05-13T12:03:31.427Z,101575.34
2023-05-13T12:06:04.440Z,101579.66
2023-05-13T12:08:34.752Z,101577.06
2023-05-13T12:11:06.445Z,101582.28
2023-05-13T12:13:36.549Z,101572.66
2023-05-13T12:16:10.723Z,101585.63
2023-05-13T12:18:40.872Z,101587.72
2023-05-13T12:21:18.408Z,101590.06
2023-05-13T12:23:48.281Z,101577.81
2023-05-13T12:26:18.320Z,101591.09
2023-05-13T12:28:48.198Z,101585.31
2023-05-13T12:31:21.798Z,101589.44
2023-05-13T12:33:52.202Z,101596.56
2023-05-13T12:36:25.978Z,101589.91
2023-05-13T12:39:03.070Z,101588.91
2023-05-13T12:41:35.305Z,101592.63
2023-05-13T12:44:07.250Z,101587.66
2023-05-13T12:46:40.512Z,101594.97
2023-05-13T12:49:13.028Z,101588.97
2023-05-13T12:51:43.068Z,101587.25
2023-05-13T12:54:16.240Z,101578.78
2023-05-13T12:56:50.377Z,101577.34
2023-05-13T12:59:20.754Z,101583.69
2023-05-13T13:01:53.277Z,101593.44
2023-05-13T13:04:23.641Z,101597.81
2023-05-13T13:06:53.631Z,101589.63
2023-05-13T13:09:23.596Z,101590.84
2023-05-13T13:11:53.587Z,101597.34
2023-05-13T13:14:26.469Z,101592.63
2023-05-13T13:16:58.959Z,101591.56
2023-05-13T13:19:29.043Z,101597.66
2023-05-13T13:21:59.075Z,101575.25
2023-05-13T13:24:29.023Z,101587.34
2023-05-13T13:26:59.159Z,101581.75
2023-05-13T13:29:29.051Z,101580.13
2023-05-13T13:32:03.392Z,101575.03
2023-05-13T13:34:34.121Z,101568.44
2023-05-13T13:37:04.025Z,101578.13
2023-05-13T13:39:35.061Z,101565.75
2023-05-13T13:42:05.846Z,101571.19
2023-05-13T13:44:37.102Z,101569.59
2023-05-13T13:47:09.773Z,101564.56
2023-05-13T13:49:39.816Z,101568.63
2023-05-13T13:52:12.282Z,101569.66
2023-05-13T13:54:42.583Z,101549.00
2023-05-13T13:57:12.746Z,101547.91
2023-05-13T13:59:43.392Z,101543.69
2023-05-13T14:02:15.917Z,101533.06
2023-05-13T14:04:45.888Z,101537.13
2023-05-13T14:07:15.962Z,101541.38
2023-05-13T14:09:45.889Z,101552.13
2023-05-13T14:12:15.818Z,101559.03
2023-05-13T14:14:45.733Z,101551.78
2023-05-13T14:17:18.341Z,101551.59
2023-05-13T14:19:51.904Z,101554.50
2023-05-13T14:22:21.996Z,101555.38
2023-05-13T14:24:51.979Z,101553.84
2023-05-13T14:27:24.894Z,101544.66
2023-05-13T14:29:54.923Z,101545.47
2023-05-13T14:32:29.275Z,101536.28
2023-05-13T14:34:59.351Z,101535.06
2023-05-13T14:37:29.451Z,101535.69
2023-05-13T14:39:59.749Z,101531.03
2023-05-13T14:42:29.674Z,101532.03
2023-05-13T14:44:59.661Z,101520.84
2023-05-13T14:47:32.229Z,101537.41
2023-05-13T14:50:02.295Z,101539.63
2023-05-13T14:52:32.326Z,101546.91
2023-05-13T14:55:02.183Z,101551.13
2023-05-13T14:57:32.170Z,101544.94
2023-05-13T15:00:02.000Z,101550.69
2023-05-13T15:02:34.942Z,101541.66
2023-05-13T15:05:04.912Z,101545.38
2023-05-13T15:07:35.098Z,101541.47
2023-05-13T15:10:05.029Z,101540.69
2023-05-13T15:12:34.913Z,101538.31
2023-05-13T15:15:04.932Z,101543.06
2023-05-13T15:17:37.500Z,101535.94
2023-05-13T15:20:08.448Z,101543.13
2023-05-13T15:22:38.468Z,101558.31
2023-05-13T15:25:09.391Z,101559.53
2023-05-13T15:27:39.250Z,101546.44
2023-05-13T15:30:11.105Z,101549.22
2023-05-13T15:32:43.591Z,101542.09
2023-05-13T15:35:13.541Z,101557.59
2023-05-13T15:37:45.311Z,101560.00
2023-05-13T15:40:15.926Z,101581.50
2023-05-13T15:42:50.706Z,101581.44
2023-05-13T15:45:20.769Z,101574.31
2023-05-13T15:47:53.772Z,101561.59
2023-05-13T15:50:26.887Z,101564.34
2023-05-13T15:52:58.641Z,101558.38
2023-05-13T15:55:28.808Z,101555.63
2023-05-13T15:57:58.787Z,101555.63
2023-05-13T16:00:28.887Z,101557.63
2023-05-13T16:03:01.578Z,101567.13
2023-05-13T16:05:32.108Z,101570.28
2023-05-13T16:08:02.086Z,101585.28
2023-05-13T16:10:32.356Z,101575.78
2023-05-13T16:13:03.003Z,101577.34
2023-05-13T16:15:32.987Z,101564.28
2023-05-13T16:18:05.479Z,101555.53
2023-05-13T16:20:35.484Z,101557.88
2023-05-13T16:23:05.374Z,101546.38
2023-05-13T16:25:36.919Z,101536.84
2023-05-13T16:28:07.172Z,101539.22
2023-05-13T16:30:37.885Z,101537.63
2023-05-13T16:33:10.521Z,101547.56
2023-05-13T16:35:42.558Z,101543.97
2023-05-13T16:38:12.611Z,101545.56
2023-05-13T16:40:42.851Z,101554.25
2023-05-13T16:43:13.376Z,101560.19
2023-05-13T16:45:44.126Z,101562.16
2023-05-13T16:48:17.235Z,101555.84
2023-05-13T16:50:47.968Z,101564.59
2023-05-13T16:53:18.064Z,101566.94
2023-05-13T16:55:49.739Z,101574.09
2023-05-13T16:58:19.952Z,101580.03
2023-05-13T17:00:50.083Z,101571.31
2023-05-13T17:03:22.769Z,101564.94
2023-05-13T17:05:52.908Z,101557.38
2023-05-13T17:08:24.710Z,101554.19
2023-05-13T17:10:54.668Z,101556.56
2023-05-13T17:13:24.579Z,101549.44
2023-05-13T17:15:54.817Z,101550.25
2023-05-13T17:18:27.433Z,101551.03
2023-05-13T17:20:57.334Z,101551.03
2023-05-13T17:23:27.218Z,101547.06
2023-05-13T17:25:57.129Z,101552.22
2023-05-13T17:28:27.165Z,101549.84
2023-05-13T17:30:57.086Z,101549.06
2023-05-13T17:33:29.759Z,101546.25
2023-05-13T17:35:59.630Z,101547.81
2023-05-13T17:38:29.929Z,101546.22
2023-05-13T17:40:59.902Z,101542.56
2023-05-13T17:43:30.010Z,101544.44
2023-05-13T17:46:00.044Z,101542.00
2023-05-13T17:48:33.425Z,101560.94
2023-05-13T17:51:06.252Z,101574.31
2023-05-13T17:53:37.558Z,101569.09
2023-05-13T17:56:08.633Z,101568.66
2023-05-13T17:58:38.520Z,101569.44
2023-05-13T18:01:08.547Z,101547.19
2023-05-13T18:03:41.132Z,101555.03
2023-05-13T18:06:11.329Z,101551.81
2023-05-13T18:08:41.317Z,101547.47
2023-05-13T18:11:11.279Z,101553.78
2023-05-13T18:13:41.227Z,101543.03
2023-05-13T18:16:11.858Z,101555.56
2023-05-13T18:18:44.685Z,101577.56
2023-05-13T18:21:14.589Z,101586.56
2023-05-13T18:23:46.757Z,101581.31
2023-05-13T18:26:16.705Z,101580.81
2023-05-13T18:28:47.271Z,101574.97
2023-05-13T18:31:17.429Z,101579.75
2023-05-13T18:33:49.914Z,101586.47
2023-05-13T18:36:20.384Z,101583.28
2023-05-13T18:38:50.345Z,101576.59
2023-05-13T18:41:20.224Z,101576.59
2023-05-13T18:43:50.103Z,101575.28
2023-05-13T18:46:20.317Z,101574.03
2023-05-13T18:48:52.867Z,101566.91
2023-05-13T18:51:22.732Z,101575.94
2023-05-13T18:53:52.924Z,101577.09
2023-05-13T18:56:23.242Z,101584.81
2023-05-13T18:58:53.165Z,101579.81
2023-05-13T19:01:23.259Z,101577.31
2023-05-13T19:03:56.009Z,101583.47
2023-05-13T19:06:26.152Z,101581.75
2023-05-13T19:08:56.139Z,101589.19
2023-05-13T19:11:26.327Z,101590.31
2023-05-13T19:13:56.809Z,101596.50
2023-05-13T19:16:26.991Z,101598.28
2023-05-13T19:18:59.763Z,101599.41
2023-05-13T19:21:30.044Z,101605.63
2023-05-13T19:24:00.163Z,101603.91
2023-05-13T19:26:30.151Z,101606.84
2023-05-13T19:29:00.055Z,101606.53
2023-05-13T19:31:31.744Z,101615.72
2023-05-13T19:34:04.749Z,101613.47
2023-05-13T19:36:34.760Z,101608.56
2023-05-13T19:39:04.762Z,101613.56
2023-05-13T19:41:34.843Z,101608.97
2023-05-13T19:44:05.348Z,101609.19
2023-05-13T19:46:35.764Z,101612.97
2023-05-13T19:49:09.276Z,101610.56
2023-05-13T19:51:39.647Z,101609.31
2023-05-13T19:54:11.055Z,101605.78
2023-05-13T19:56:41.556Z,101606.13
2023-05-13T19:59:11.698Z,101604.44
2023-05-13T20:01:41.706Z,101602.31
2023-05-13T20:04:14.865Z,101606.22
2023-05-13T20:06:44.835Z,101611.56
2023-05-13T20:09:17.076Z,101610.63
2023-05-13T20:11:47.175Z,101612.16
2023-05-13T20:14:17.309Z,101614.47
2023-05-13T20:16:47.836Z,101613.47
2023-05-13T20:19:21.080Z,101614.13
2023-05-13T20:21:51.095Z,101612.81
2023-05-13T20:24:21.084Z,101610.66
2023-05-13T20:26:50.980Z,101622.75
2023-05-13T20:29:21.012Z,101618.41
2023-05-13T20:31:51.171Z,101616.69
2023-05-13T20:34:23.849Z,101618.94
2023-05-13T20:36:53.790Z,101615.53
2023-05-13T20:39:24.171Z,101616.09
2023-05-13T20:41:54.609Z,101616.66
2023-05-13T20:44:28.139Z,101612.94
2023-05-13T20:46:58.225Z,101625.34
2023-05-13T20:49:30.844Z,101625.59
2023-05-13T20:52:06.348Z,101608.88
2023-05-13T20:54:38.920Z,101623.16
2023-05-13T20:57:09.116Z,101627.31
2023-05-13T20:59:39.040Z,101621.63
2023-05-13T21:02:09.061Z,101630.81
2023-05-13T21:04:41.620Z,101623.16
2023-05-13T21:07:11.945Z,101626.16
2023-05-13T21:09:42.268Z,101627.22
2023-05-13T21:12:12.333Z,101626.28
2023-05-13T21:14:42.257Z,101619.44
2023-05-13T21:17:12.706Z,101621.25
2023-05-13T21:19:45.219Z,101624.25
2023-05-13T21:22:15.137Z,101621.72
2023-05-13T21:24:45.720Z,101630.19
2023-05-13T21:27:15.590Z,101637.19
2023-05-13T21:29:45.471Z,101632.72
2023-05-13T21:32:16.702Z,101626.34
2023-05-13T21:34:49.266Z,101639.16
2023-05-13T21:37:19.136Z,101631.16
2023-05-13T21:39:49.058Z,101632.63
2023-05-13T21:42:19.443Z,101629.31
2023-05-13T21:44:49.325Z,101629.56
2023-05-13T21:47:19.205Z,101629.06
2023-05-13T21:49:54.740Z,101628.19
2023-05-13T21:52:24.697Z,101621.75
2023-05-13T21:54:54.931Z,101624.75
2023-05-13T21:57:24.887Z,101635.25
2023-05-13T21:59:54.853Z,101628.16
2023-05-13T22:02:25.011Z,101632.50
2023-05-13T22:04:57.612Z,101631.38
2023-05-13T22:07:27.560Z,101634.13
2023-05-13T22:09:57.795Z,101629.78
2023-05-13T22:12:27.662Z,101633.66
2023-05-13T22:14:57.709Z,101627.03
2023-05-13T22:17:27.794Z,101627.38
2023-05-13T22:20:00.326Z,101633.66
2023-05-13T22:22:33.225Z,101624.53
2023-05-13T22:25:03.614Z,101624.03
2023-05-13T22:27:33.536Z,101616.16
2023-05-13T22:30:03.442Z,101623.16
2023-05-13T22:32:34.593Z,101627.34
2023-05-13T22:35:08.064Z,101623.34
2023-05-13T22:37:38.334Z,101619.38
2023-05-13T22:40:10.012Z,101627.91
2023-05-13T22:42:40.038Z,101627.81
2023-05-13T22:45:11.355Z,101629.13
2023-05-13T22:47:41.477Z,101629.03
2023-05-13T22:50:15.255Z,101624.91
2023-05-13T22:52:45.445Z,101624.66
2023-05-13T22:55:15.598Z,101617.44
2023-05-13T22:57:45.574Z,101616.53
2023-05-13T23:00:16.709Z,101608.16
2023-05-13T23:02:46.720Z,101615.44
2023-05-13T23:05:19.422Z,101607.44
2023-05-13T23:07:49.304Z,101605.72
2023-05-13T23:10:19.337Z,101608.66
2023-05-13T23:12:49.556Z,101605.34
2023-05-13T23:15:19.585Z,101605.19
2023-05-13T23:17:49.668Z,101603.47
2023-05-13T23:20:22.785Z,101600.16
2023-05-13T23:22:52.869Z,101614.84
2023-05-13T23:25:22.946Z,101599.41
2023-05-13T23:27:54.100Z,101600.44
2023-05-13T23:30:25.166Z,101605.31
2023-05-13T23:32:58.192Z,101594.19
2023-05-13T23:35:31.123Z,101593.63
2023-05-13T23:38:01.375Z,101597.31
2023-05-13T23:40:31.378Z,101594.78
2023-05-13T23:43:01.353Z,101595.00
2023-05-13T23:45:31.581Z,101600.31
2023-05-13T23:48:01.614Z,101593.09
2023-05-13T23:50:35.961Z,101592.19
2023-05-13T23:53:05.974Z,101590.09
2023-05-13T23:55:36.071Z,101589.16
2023-05-13T23:58:06.256Z,101587.41
